Time;durP1;ratioP1;P1;durP2;ratioP2;P2;SDS_P1;SDS_P2;PMS_P1;PMS_P2;Temp;Humidity;BMP_temperature;BMP_pressure;BME280_temperature;BME280_humidity;BME280_pressure;Samples;Min_cycle;Max_cycle;Signal;HPM_P1;HPM_P2
2021/09/04 00:01:10;;;;;;;7.70;7.10;;;16.20;99.90;;;;;;5013571;28;20191;-77
2021/09/04 00:03:35;;;;;;;8.30;7.50;;;16.00;99.90;;;;;;5014843;28;20172;-78
2021/09/04 00:06:01;;;;;;;7.10;6.50;;;16.00;99.90;;;;;;5014177;28;20170;-77
2021/09/04 00:08:26;;;;;;;8.07;6.97;;;16.00;99.90;;;;;;5014788;28;20207;-77
2021/09/04 00:10:52;;;;;;;8.17;7.47;;;16.00;99.90;;;;;;5014399;28;20662;-77
2021/09/04 00:13:18;;;;;;;7.43;6.83;;;15.90;99.90;;;;;;5014717;28;20177;-77
2021/09/04 00:15:44;;;;;;;8.10;7.40;;;15.80;99.90;;;;;;5014639;28;20173;-77
2021/09/04 00:18:09;;;;;;;8.47;7.63;;;15.80;99.90;;;;;;5014570;28;20181;-77
2021/09/04 00:20:35;;;;;;;7.93;7.17;;;15.80;99.90;;;;;;5013048;28;20217;-77
2021/09/04 00:23:01;;;;;;;8.13;7.43;;;15.80;99.90;;;;;;5014499;28;20527;-77
2021/09/04 00:25:26;;;;;;;7.70;6.97;;;15.70;99.90;;;;;;5014561;28;20178;-77
2021/09/04 00:27:52;;;;;;;8.60;7.80;;;15.80;99.90;;;;;;5013121;28;20185;-77
2021/09/04 00:30:17;;;;;;;8.23;7.43;;;15.80;99.90;;;;;;5014329;28;20218;-77
2021/09/04 00:32:43;;;;;;;8.60;7.70;;;15.80;99.90;;;;;;5013641;28;20206;-77
2021/09/04 00:35:09;;;;;;;11.47;7.13;;;15.80;99.90;;;;;;5014288;28;20233;-78
2021/09/04 00:37:35;;;;;;;8.30;7.50;;;15.80;99.90;;;;;;5014290;28;20177;-77
2021/09/04 00:40:01;;;;;;;8.37;7.57;;;15.80;99.90;;;;;;5012803;28;20244;-78
2021/09/04 00:42:27;;;;;;;7.53;6.83;;;15.70;99.90;;;;;;5013096;28;20523;-77
2021/09/04 00:44:52;;;;;;;8.10;7.40;;;15.70;99.90;;;;;;5028080;28;20224;-78
2021/09/04 00:47:18;;;;;;;8.03;7.33;;;15.70;99.90;;;;;;5014141;28;20171;-77
2021/09/04 00:49:43;;;;;;;8.57;7.83;;;15.70;99.90;;;;;;5012652;28;20202;-77
2021/09/04 00:52:09;;;;;;;8.13;7.43;;;15.80;99.90;;;;;;5012767;28;20221;-77
2021/09/04 00:54:35;;;;;;;7.53;6.93;;;15.70;99.90;;;;;;5014006;28;20304;-77
2021/09/04 00:57:02;;;;;;;8.40;7.70;;;15.50;99.90;;;;;;5013936;28;20183;-78
2021/09/04 00:59:28;;;;;;;9.40;8.33;;;15.30;99.90;;;;;;5013916;28;20191;-77
2021/09/04 01:01:54;;;;;;;8.60;7.80;;;15.20;99.90;;;;;;5012478;28;20269;-77
2021/09/04 01:04:23;;;;;;;8.00;7.40;;;15.30;99.90;;;;;;5013899;28;20213;-77
2021/09/04 01:06:49;;;;;;;8.53;7.73;;;15.30;99.90;;;;;;5012795;28;20509;-77
2021/09/04 01:09:15;;;;;;;8.83;8.03;;;15.30;99.90;;;;;;5013995;28;20190;-77
2021/09/04 01:11:41;;;;;;;8.00;7.30;;;15.40;99.90;;;;;;5013677;28;20677;-77
2021/09/04 01:14:07;;;;;;;9.73;8.10;;;15.40;99.90;;;;;;5013649;28;20179;-77
2021/09/04 01:16:37;;;;;;;8.43;7.63;;;15.30;99.90;;;;;;5013604;28;20557;-77
2021/09/04 01:19:03;;;;;;;8.43;7.67;;;15.30;99.90;;;;;;5013920;28;20667;-77
2021/09/04 01:21:29;;;;;;;9.20;8.37;;;15.40;99.90;;;;;;5012925;28;20203;-77
2021/09/04 01:23:55;;;;;;;8.13;7.33;;;15.40;99.90;;;;;;5013659;28;20186;-77
2021/09/04 01:26:22;;;;;;;8.30;7.60;;;15.40;99.90;;;;;;5012295;28;20183;-77
2021/09/04 01:28:48;;;;;;;8.73;7.97;;;15.40;99.90;;;;;;5013554;28;20184;-77
2021/09/04 01:31:14;;;;;;;9.07;7.77;;;15.30;99.90;;;;;;5012128;28;20197;-77
2021/09/04 01:33:43;;;;;;;7.80;6.93;;;15.30;99.90;;;;;;5010514;28;20592;-77
2021/09/04 01:36:11;;;;;;;8.93;8.13;;;15.30;99.90;;;;;;5013393;28;20193;-77
2021/09/04 01:38:36;;;;;;;8.77;7.97;;;15.30;99.90;;;;;;5013269;28;20221;-77
2021/09/04 01:41:02;;;;;;;8.47;7.57;;;15.30;99.90;;;;;;5012070;28;20195;-77
2021/09/04 01:43:28;;;;;;;8.80;7.83;;;15.30;99.90;;;;;;5013339;28;20183;-77
2021/09/04 01:45:55;;;;;;;9.67;8.80;;;15.30;99.90;;;;;;5012109;28;20201;-77
2021/09/04 01:48:20;;;;;;;8.90;8.07;;;15.30;99.90;;;;;;5013234;28;20187;-77
2021/09/04 01:50:46;;;;;;;7.33;6.53;;;15.30;99.90;;;;;;5013217;28;20254;-77
2021/09/04 01:53:12;;;;;;;8.00;7.30;;;15.20;99.90;;;;;;5013302;28;20305;-77
2021/09/04 01:55:38;;;;;;;8.23;7.40;;;15.20;99.90;;;;;;5011986;28;20653;-76
2021/09/04 01:58:03;;;;;;;7.87;7.17;;;15.10;99.90;;;;;;5013416;28;20647;-77
2021/09/04 02:00:29;;;;;;;7.97;7.17;;;15.10;99.90;;;;;;5002360;28;20356;-77
2021/09/04 02:02:55;;;;;;;8.33;7.30;;;15.10;99.90;;;;;;5013130;28;20175;-77
2021/09/04 02:05:20;;;;;;;9.63;7.50;;;15.00;99.90;;;;;;5011836;28;20261;-76
2021/09/04 02:07:46;;;;;;;9.03;7.73;;;14.90;99.90;;;;;;5011578;28;20176;-76
2021/09/04 02:10:12;;;;;;;7.53;6.80;;;14.90;99.90;;;;;;5013122;28;20199;-77
2021/09/04 02:12:37;;;;;;;7.50;6.80;;;14.90;99.90;;;;;;5010964;28;20762;-77
2021/09/04 02:15:06;;;;;;;8.00;7.20;;;14.90;99.90;;;;;;5011946;28;20182;-77
2021/09/04 02:17:32;;;;;;;8.63;7.83;;;14.90;99.90;;;;;;4998220;28;20250;-77
2021/09/04 02:19:58;;;;;;;8.73;7.20;;;14.90;99.90;;;;;;5010940;28;20734;-77
2021/09/04 02:22:24;;;;;;;7.73;6.93;;;14.90;99.90;;;;;;5011416;28;20178;-77
2021/09/04 02:24:49;;;;;;;8.67;7.87;;;14.90;99.90;;;;;;4997508;28;20203;-77
2021/09/04 02:27:15;;;;;;;9.90;7.97;;;14.90;99.90;;;;;;4994174;28;20175;-77
2021/09/04 02:29:41;;;;;;;8.73;7.90;;;14.90;99.90;;;;;;4994848;28;20283;-76
2021/09/04 02:32:07;;;;;;;8.47;7.80;;;14.90;99.90;;;;;;4995743;28;20175;-77
2021/09/04 02:34:33;;;;;;;8.23;7.53;;;14.80;99.90;;;;;;4998203;28;20190;-77
2021/09/04 02:36:59;;;;;;;8.07;7.37;;;14.80;99.90;;;;;;5002882;28;20543;-77
2021/09/04 02:39:24;;;;;;;8.40;7.60;;;14.90;99.90;;;;;;5002102;28;20191;-78
2021/09/04 02:41:50;;;;;;;8.37;7.67;;;14.80;99.90;;;;;;5014680;28;20620;-78
2021/09/04 02:44:15;;;;;;;8.33;7.53;;;14.80;99.90;;;;;;5014389;28;20179;-77
2021/09/04 02:46:41;;;;;;;8.57;7.87;;;14.80;99.90;;;;;;5015582;28;20599;-77
2021/09/04 02:49:07;;;;;;;8.13;7.43;;;14.80;99.90;;;;;;5015099;28;20199;-76
2021/09/04 02:51:33;;;;;;;8.40;7.30;;;14.80;99.90;;;;;;5016228;28;20728;-76
2021/09/04 02:53:58;;;;;;;9.03;8.30;;;14.80;99.90;;;;;;5015397;28;20533;-77
2021/09/04 02:56:24;;;;;;;9.20;8.40;;;14.70;99.90;;;;;;5016221;28;20306;-77
2021/09/04 02:58:50;;;;;;;10.27;7.40;;;14.70;99.90;;;;;;5015715;28;20325;-76
2021/09/04 03:01:15;;;;;;;8.70;8.00;;;14.70;99.90;;;;;;5014692;28;20202;-77
2021/09/04 03:03:41;;;;;;;8.60;7.90;;;14.60;99.90;;;;;;5016040;28;20190;-77
2021/09/04 03:06:06;;;;;;;8.97;8.27;;;14.40;99.90;;;;;;5014801;28;20178;-76
2021/09/04 03:08:33;;;;;;;8.40;7.60;;;14.40;99.90;;;;;;5014637;28;20658;-77
2021/09/04 03:10:59;;;;;;;8.60;7.90;;;14.40;99.90;;;;;;5015789;28;20194;-77
2021/09/04 03:13:24;;;;;;;8.43;7.60;;;14.40;99.90;;;;;;5015491;28;20597;-77
2021/09/04 03:15:50;;;;;;;9.40;8.43;;;14.30;99.90;;;;;;5015722;28;20187;-77
2021/09/04 03:18:16;;;;;;;8.40;7.60;;;14.40;99.90;;;;;;5014479;28;20184;-77
2021/09/04 03:20:42;;;;;;;9.10;8.17;;;14.30;99.90;;;;;;5014219;28;20211;-76
2021/09/04 03:23:07;;;;;;;9.33;8.33;;;14.30;99.90;;;;;;5015657;28;20174;-77
2021/09/04 03:25:33;;;;;;;10.93;8.70;;;14.20;99.90;;;;;;5016073;28;20646;-77
2021/09/04 03:27:59;;;;;;;8.30;7.50;;;14.10;99.90;;;;;;5012341;28;20176;-78
2021/09/04 03:30:25;;;;;;;9.00;8.10;;;14.20;99.90;;;;;;5015517;28;20282;-77
2021/09/04 03:32:51;;;;;;;8.27;7.57;;;14.30;99.90;;;;;;5015695;28;20214;-77
2021/09/04 03:35:16;;;;;;;8.73;8.03;;;14.30;99.90;;;;;;5015624;28;20210;-77
2021/09/04 03:37:42;;;;;;;8.43;7.63;;;14.30;99.90;;;;;;5015656;28;20286;-76
2021/09/04 03:40:08;;;;;;;10.27;7.97;;;14.30;99.90;;;;;;5014359;28;20211;-78
2021/09/04 03:42:34;;;;;;;8.87;8.07;;;14.30;99.90;;;;;;5015269;28;20171;-77
2021/09/04 03:45:00;;;;;;;8.57;7.67;;;14.30;99.90;;;;;;5013333;28;20673;-77
2021/09/04 03:47:26;;;;;;;8.37;7.67;;;14.30;99.90;;;;;;5013866;28;20178;-77
2021/09/04 03:49:52;;;;;;;10.00;8.97;;;14.30;99.90;;;;;;5013862;28;20715;-77
2021/09/04 03:52:17;;;;;;;8.77;7.97;;;14.30;99.90;;;;;;5015092;28;20259;-77
2021/09/04 03:54:43;;;;;;;8.70;7.97;;;14.30;99.90;;;;;;5015112;28;20236;-77
2021/09/04 03:57:08;;;;;;;8.27;6.97;;;14.20;99.90;;;;;;5013251;28;20175;-77
2021/09/04 03:59:34;;;;;;;8.43;7.63;;;14.30;99.90;;;;;;5013654;28;20206;-75
2021/09/04 04:02:00;;;;;;;7.60;7.00;;;14.30;99.90;;;;;;5010899;28;20699;-78
2021/09/04 04:04:25;;;;;;;8.60;7.80;;;14.20;99.90;;;;;;5002105;28;20182;-78
2021/09/04 04:06:51;;;;;;;8.33;7.37;;;14.20;99.90;;;;;;4997018;28;20560;-77
2021/09/04 04:09:17;;;;;;;9.37;8.47;;;14.20;99.90;;;;;;5012786;28;20634;-77
2021/09/04 04:11:42;;;;;;;8.50;7.70;;;14.20;99.90;;;;;;5012808;28;20249;-78
2021/09/04 04:14:08;;;;;;;8.83;8.03;;;14.10;99.90;;;;;;5011412;28;20175;-78
2021/09/04 04:16:34;;;;;;;9.40;8.47;;;14.10;99.90;;;;;;5012598;28;20175;-78
2021/09/04 04:18:59;;;;;;;8.70;7.80;;;14.10;99.90;;;;;;5012604;28;20226;-78
2021/09/04 04:21:25;;;;;;;8.67;7.83;;;14.10;99.90;;;;;;5014138;28;20226;-77
2021/09/04 04:23:50;;;;;;;7.73;7.13;;;14.10;99.90;;;;;;5012643;28;20194;-77
2021/09/04 04:26:16;;;;;;;8.23;7.53;;;14.10;99.90;;;;;;5026779;28;20178;-77
2021/09/04 04:28:42;;;;;;;8.27;7.40;;;14.10;99.90;;;;;;5014515;28;20179;-77
2021/09/04 04:31:07;;;;;;;8.87;7.97;;;14.00;99.90;;;;;;5026692;28;20190;-77
2021/09/04 04:33:33;;;;;;;7.43;6.77;;;13.90;99.90;;;;;;5013853;28;20282;-77
2021/09/04 04:35:58;;;;;;;8.67;7.77;;;13.90;99.90;;;;;;5025402;28;20257;-77
2021/09/04 04:38:24;;;;;;;7.57;6.87;;;13.90;99.90;;;;;;5019464;28;20170;-77
2021/09/04 04:40:50;;;;;;;9.00;8.00;;;13.80;99.90;;;;;;5025204;28;20211;-77
2021/09/04 04:43:16;;;;;;;8.90;8.07;;;13.80;99.90;;;;;;5014157;28;20177;-77
2021/09/04 04:45:42;;;;;;;10.37;8.17;;;13.80;99.90;;;;;;5014186;28;20209;-77
2021/09/04 04:48:07;;;;;;;10.03;8.33;;;13.80;99.90;;;;;;5012733;28;20252;-77
2021/09/04 04:50:33;;;;;;;8.57;7.87;;;13.80;99.90;;;;;;5013943;28;20203;-77
2021/09/04 04:52:59;;;;;;;8.30;7.60;;;13.80;99.90;;;;;;5012820;28;20679;-77
2021/09/04 04:55:25;;;;;;;9.17;8.37;;;13.80;99.90;;;;;;5027911;28;20592;-77
2021/09/04 04:57:51;;;;;;;8.63;7.93;;;13.80;99.90;;;;;;5013216;28;20187;-77
2021/09/04 05:00:17;;;;;;;9.43;8.63;;;13.80;99.90;;;;;;5013684;28;20208;-77
2021/09/04 05:02:42;;;;;;;8.67;7.97;;;13.80;99.90;;;;;;5013739;28;20637;-77
2021/09/04 05:05:09;;;;;;;8.73;8.03;;;13.70;99.90;;;;;;5013957;28;20185;-77
2021/09/04 05:07:34;;;;;;;11.17;8.20;;;13.90;99.90;;;;;;5019972;28;20187;-77
2021/09/04 05:10:01;;;;;;;10.87;8.13;;;13.90;99.90;;;;;;5008796;28;20298;-77
2021/09/04 05:12:27;;;;;;;10.23;8.30;;;13.80;99.90;;;;;;5011540;28;20175;-77
2021/09/04 05:14:53;;;;;;;9.90;8.87;;;13.80;99.90;;;;;;5007210;28;20179;-77
2021/09/04 05:17:18;;;;;;;12.70;8.10;;;13.80;99.90;;;;;;5004369;28;20582;-77
2021/09/04 05:19:44;;;;;;;9.10;8.30;;;13.80;99.90;;;;;;5008847;28;20210;-78
2021/09/04 05:22:09;;;;;;;9.40;8.47;;;13.80;99.90;;;;;;5008295;28;20194;-78
2021/09/04 05:24:35;;;;;;;8.40;7.60;;;13.80;99.90;;;;;;5006843;28;20183;-79
2021/09/04 05:27:01;;;;;;;13.27;8.10;;;13.80;99.90;;;;;;5016380;28;20194;-78
2021/09/04 05:29:27;;;;;;;9.07;7.50;;;13.80;99.90;;;;;;5029676;28;20185;-78
2021/09/04 05:31:53;;;;;;;11.43;7.53;;;13.90;99.90;;;;;;5016535;28;20553;-78
2021/09/04 05:34:18;;;;;;;9.00;8.10;;;13.90;99.90;;;;;;5010477;28;20212;-78
2021/09/04 05:36:44;;;;;;;9.03;8.20;;;13.90;99.90;;;;;;5014124;28;20191;-78
2021/09/04 05:39:10;;;;;;;9.67;8.60;;;13.90;99.90;;;;;;5015010;28;20213;-78
2021/09/04 05:41:35;;;;;;;8.87;8.03;;;14.00;99.90;;;;;;5016264;28;20206;-78
2021/09/04 05:44:01;;;;;;;9.70;8.80;;;14.00;99.90;;;;;;5014888;28;20206;-77
2021/09/04 05:46:27;;;;;;;9.40;8.60;;;13.90;99.90;;;;;;5015828;28;20178;-78
2021/09/04 05:48:52;;;;;;;9.57;8.67;;;13.80;99.90;;;;;;5014856;28;20171;-77
2021/09/04 05:51:18;;;;;;;10.00;8.73;;;13.80;99.90;;;;;;5013561;28;20686;-77
2021/09/04 05:53:44;;;;;;;9.63;8.17;;;13.70;99.90;;;;;;5013715;28;20601;-78
2021/09/04 05:56:09;;;;;;;9.03;8.23;;;13.80;99.90;;;;;;5023918;28;20175;-77
2021/09/04 05:58:35;;;;;;;9.20;8.33;;;13.80;99.90;;;;;;5013296;28;20195;-77
2021/09/04 06:01:01;;;;;;;9.87;9.03;;;13.80;99.90;;;;;;5018575;28;20280;-77
2021/09/04 06:03:26;;;;;;;9.60;8.70;;;13.80;99.90;;;;;;5014671;28;20285;-77
2021/09/04 06:05:56;;;;;;;9.20;8.40;;;13.90;99.90;;;;;;5027053;28;20182;-78
2021/09/04 06:08:23;;;;;;;9.60;8.50;;;14.00;99.90;;;;;;5015357;28;20697;-77
2021/09/04 06:10:48;;;;;;;10.00;9.00;;;14.00;99.90;;;;;;5017244;28;20203;-77
2021/09/04 06:13:14;;;;;;;9.07;8.23;;;14.10;99.90;;;;;;5018262;28;20183;-77
2021/09/04 06:15:40;;;;;;;9.23;8.43;;;14.20;99.90;;;;;;5018763;28;20187;-77
2021/09/04 06:18:05;;;;;;;8.90;8.00;;;14.30;99.90;;;;;;5018397;28;20732;-78
2021/09/04 06:20:31;;;;;;;11.10;8.37;;;14.30;99.90;;;;;;5018218;28;20217;-77
2021/09/04 06:22:57;;;;;;;9.53;8.23;;;14.30;99.90;;;;;;5018225;28;20218;-77
2021/09/04 06:25:22;;;;;;;10.53;8.33;;;14.40;99.90;;;;;;5016862;28;20629;-78
2021/09/04 06:27:49;;;;;;;9.67;8.60;;;14.30;99.90;;;;;;5015479;28;20266;-76
2021/09/04 06:30:15;;;;;;;9.87;8.87;;;14.30;99.90;;;;;;5019032;28;20207;-78
2021/09/04 06:32:40;;;;;;;9.93;9.03;;;14.30;99.90;;;;;;5031694;28;20272;-78
2021/09/04 06:35:06;;;;;;;9.13;8.03;;;14.40;99.90;;;;;;5024034;28;20174;-78
2021/09/04 06:37:32;;;;;;;9.10;8.20;;;14.60;99.90;;;;;;5030663;28;20186;-78
2021/09/04 06:39:58;;;;;;;10.30;8.07;;;14.60;99.90;;;;;;5034255;28;20198;-78
2021/09/04 06:42:23;;;;;;;9.13;8.33;;;14.70;99.90;;;;;;5039977;28;20166;-78
2021/09/04 06:44:49;;;;;;;9.33;8.53;;;14.80;99.90;;;;;;5039283;28;20641;-78
2021/09/04 06:47:15;;;;;;;9.50;8.60;;;14.80;99.90;;;;;;5018484;28;20171;-77
2021/09/04 06:49:40;;;;;;;10.17;9.27;;;14.80;99.90;;;;;;5018569;28;20529;-78
2021/09/04 06:52:06;;;;;;;9.93;8.90;;;14.90;99.90;;;;;;5019044;28;20199;-78
2021/09/04 06:54:31;;;;;;;10.63;9.63;;;15.00;99.90;;;;;;5020336;28;20270;-78
2021/09/04 06:56:58;;;;;;;12.33;11.03;;;15.10;99.90;;;;;;5018730;28;20610;-78
2021/09/04 06:59:24;;;;;;;11.23;10.10;;;15.10;99.90;;;;;;5018424;28;20680;-78
2021/09/04 07:01:51;;;;;;;15.50;12.13;;;15.20;99.90;;;;;;5019719;28;20198;-78
2021/09/04 07:04:17;;;;;;;13.77;12.40;;;15.20;99.90;;;;;;5018273;28;20726;-78
2021/09/04 07:06:43;;;;;;;14.97;12.37;;;15.30;99.90;;;;;;5019280;28;20179;-78
2021/09/04 07:09:08;;;;;;;13.43;12.13;;;15.40;99.90;;;;;;5018051;28;20266;-78
2021/09/04 07:11:34;;;;;;;13.80;12.33;;;15.40;99.90;;;;;;5017797;28;20196;-78
2021/09/04 07:14:00;;;;;;;13.17;11.87;;;15.50;99.90;;;;;;5020098;28;20187;-78
2021/09/04 07:16:26;;;;;;;16.07;14.43;;;15.60;99.90;;;;;;5018450;28;20179;-78
2021/09/04 07:18:51;;;;;;;19.87;15.20;;;15.60;99.90;;;;;;5017514;28;20564;-78
2021/09/04 07:21:17;;;;;;;16.50;14.57;;;15.60;99.90;;;;;;5019814;28;20216;-78
2021/09/04 07:23:42;;;;;;;14.53;13.13;;;15.70;99.90;;;;;;5029660;28;20266;-78
2021/09/04 07:26:08;;;;;;;16.53;14.00;;;15.80;99.90;;;;;;5015127;28;20548;-79
2021/09/04 07:28:34;;;;;;;17.57;14.63;;;15.70;99.90;;;;;;5019585;28;20179;-78
2021/09/04 07:31:00;;;;;;;15.73;12.00;;;15.80;99.90;;;;;;5018925;28;20203;-78
2021/09/04 07:33:27;;;;;;;14.53;13.07;;;15.90;99.90;;;;;;5018035;28;20208;-78
2021/09/04 07:35:53;;;;;;;15.10;13.50;;;16.00;99.90;;;;;;5019146;28;20221;-78
2021/09/04 07:38:19;;;;;;;14.50;13.00;;;16.10;99.90;;;;;;5031567;28;20188;-78
2021/09/04 07:40:45;;;;;;;15.23;13.13;;;16.20;99.90;;;;;;5018879;28;20207;-78
2021/09/04 07:43:11;;;;;;;15.10;13.50;;;16.40;99.90;;;;;;5019544;28;20252;-78
2021/09/04 07:45:37;;;;;;;15.40;12.97;;;16.50;99.90;;;;;;5018525;28;20184;-78
2021/09/04 07:48:07;;;;;;;13.00;11.70;;;16.60;99.90;;;;;;5019818;28;20187;-78
2021/09/04 07:50:33;;;;;;;15.87;13.13;;;16.60;99.90;;;;;;5018292;28;20233;-78
2021/09/04 07:52:59;;;;;;;14.27;12.87;;;16.70;99.90;;;;;;5017230;28;20189;-79
2021/09/04 07:55:25;;;;;;;13.73;12.33;;;16.80;99.90;;;;;;5018044;28;20179;-78
2021/09/04 07:57:51;;;;;;;14.97;13.00;;;16.90;99.90;;;;;;5017693;28;20198;-78
2021/09/04 08:00:17;;;;;;;14.83;12.50;;;17.00;99.90;;;;;;5018586;28;20225;-78
2021/09/04 08:02:43;;;;;;;12.97;11.80;;;17.00;99.90;;;;;;5018569;28;20186;-78
2021/09/04 08:05:09;;;;;;;16.43;11.80;;;17.10;99.90;;;;;;5017114;28;20200;-79
2021/09/04 08:07:35;;;;;;;15.43;12.23;;;17.10;99.90;;;;;;5017036;28;20185;-78
2021/09/04 08:10:01;;;;;;;13.07;11.67;;;17.20;99.90;;;;;;5017327;28;20193;-77
2021/09/04 08:12:27;;;;;;;13.07;11.67;;;17.20;99.90;;;;;;5020001;28;20668;-78
2021/09/04 08:14:52;;;;;;;13.37;12.03;;;17.30;99.90;;;;;;5017924;28;20201;-79
2021/09/04 08:17:18;;;;;;;13.90;11.90;;;17.30;99.90;;;;;;5012637;28;20196;-80
2021/09/04 08:19:44;;;;;;;13.13;11.83;;;17.40;99.90;;;;;;5019728;28;20209;-78
2021/09/04 08:22:10;;;;;;;13.97;12.53;;;17.50;99.90;;;;;;5019649;28;20221;-78
2021/09/04 08:24:35;;;;;;;13.77;12.47;;;17.50;99.90;;;;;;5019842;28;20179;-79
2021/09/04 08:27:02;;;;;;;14.20;12.63;;;17.50;99.90;;;;;;5019791;28;20183;-80
2021/09/04 08:29:28;;;;;;;13.00;11.70;;;17.50;99.90;;;;;;5018771;28;20186;-80
2021/09/04 08:31:53;;;;;;;12.97;11.60;;;17.50;99.90;;;;;;5017717;28;20219;-79
2021/09/04 08:34:20;;;;;;;15.47;12.47;;;17.60;99.90;;;;;;5013081;28;20180;-78
2021/09/04 08:36:45;;;;;;;13.57;12.10;;;17.60;99.90;;;;;;5012401;28;20298;-76
2021/09/04 08:39:12;;;;;;;13.47;11.83;;;17.80;99.90;;;;;;5013832;28;20274;-76
2021/09/04 08:41:38;;;;;;;12.77;11.47;;;18.00;99.90;;;;;;5011296;28;20199;-75
2021/09/04 08:44:05;;;;;;;12.17;10.13;;;18.00;99.90;;;;;;5028804;28;20174;-77
2021/09/04 08:46:36;;;;;;;11.90;10.80;;;18.00;99.90;;;;;;4998574;28;20199;-78
2021/09/04 08:49:03;;;;;;;11.67;10.57;;;18.00;99.90;;;;;;5018408;28;20194;-78
2021/09/04 08:51:29;;;;;;;12.20;11.00;;;18.10;99.90;;;;;;5018930;28;20567;-78
2021/09/04 08:53:55;;;;;;;11.73;10.53;;;18.20;99.90;;;;;;5018446;28;20179;-78
2021/09/04 08:56:20;;;;;;;11.77;10.67;;;18.20;99.90;;;;;;5018944;28;20301;-78
2021/09/04 08:58:46;;;;;;;12.40;11.00;;;18.20;99.90;;;;;;5009002;28;20684;-78
2021/09/04 09:01:24;;;;;;;11.53;10.43;;;18.30;99.90;;;;;;5017430;28;20611;-78
2021/09/04 09:03:52;;;;;;;12.70;11.60;;;18.50;99.90;;;;;;5016111;28;20189;-79
2021/09/04 09:06:28;;;;;;;12.93;11.67;;;18.60;99.90;;;;;;5016024;28;20214;-78
2021/09/04 09:08:54;;;;;;;12.03;10.83;;;18.60;99.90;;;;;;5017794;28;20273;-79
2021/09/04 09:11:21;;;;;;;12.37;11.23;;;18.70;99.90;;;;;;5017044;28;20195;-78
2021/09/04 09:13:55;;;;;;;12.00;10.90;;;18.80;99.90;;;;;;5017516;28;20180;-79
2021/09/04 09:16:23;;;;;;;12.90;11.73;;;18.90;99.90;;;;;;5017907;28;20179;-78
2021/09/04 09:19:01;;;;;;;14.73;10.97;;;18.80;99.90;;;;;;5017591;28;20179;-79
2021/09/04 09:21:31;;;;;;;12.37;11.17;;;18.90;99.90;;;;;;5015797;28;20230;-79
2021/09/04 09:24:15;;;;;;;11.30;10.30;;;19.00;99.90;;;;;;5022533;28;20185;-78
2021/09/04 09:27:00;;;;;;;10.40;9.47;;;19.00;99.90;;;;;;5021276;28;20217;-78
2021/09/04 09:29:34;;;;;;;11.97;10.83;;;18.70;99.90;;;;;;5016846;28;20632;-76
2021/09/04 09:32:06;;;;;;;12.13;10.90;;;19.10;99.90;;;;;;5015728;28;20203;-78
2021/09/04 09:34:40;;;;;;;11.43;10.33;;;19.20;99.90;;;;;;5024914;28;20182;-78
2021/09/04 09:37:07;;;;;;;11.53;10.10;;;19.30;99.90;;;;;;5010698;28;20183;-78
2021/09/04 09:39:34;;;;;;;12.27;11.00;;;19.50;99.90;;;;;;5012509;28;20209;-77
2021/09/04 09:42:02;;;;;;;11.87;9.90;;;19.60;99.90;;;;;;5013326;28;20669;-78
2021/09/04 09:44:31;;;;;;;10.90;9.90;;;19.70;99.90;;;;;;5013653;28;20555;-78
2021/09/04 09:46:59;;;;;;;13.67;10.20;;;19.90;99.90;;;;;;5028153;28;20189;-78
2021/09/04 09:49:30;;;;;;;11.63;9.73;;;20.00;99.90;;;;;;5015115;28;20186;-78
2021/09/04 09:52:16;;;;;;;10.67;9.57;;;20.00;99.90;;;;;;5012061;28;20214;-78
2021/09/04 09:54:45;;;;;;;10.50;9.50;;;20.20;99.90;;;;;;5008114;28;20185;-78
2021/09/04 09:57:11;;;;;;;10.27;9.07;;;20.30;99.90;;;;;;5020302;28;20183;-78
2021/09/04 09:59:44;;;;;;;9.63;8.83;;;20.30;99.90;;;;;;5018652;28;20206;-78
2021/09/04 10:02:13;;;;;;;10.37;9.37;;;20.40;99.90;;;;;;5022762;28;20698;-80
2021/09/04 10:04:40;;;;;;;8.83;8.03;;;20.50;99.90;;;;;;5012393;28;20265;-77
2021/09/04 10:07:08;;;;;;;11.90;9.27;;;20.70;99.90;;;;;;5010581;28;20229;-77
2021/09/04 10:09:35;;;;;;;8.87;7.93;;;20.70;99.90;;;;;;5002774;28;20632;-77
2021/09/04 10:12:02;;;;;;;8.57;7.73;;;20.70;99.90;;;;;;5011582;28;20257;-77
2021/09/04 10:14:28;;;;;;;9.33;8.53;;;20.80;99.90;;;;;;5001953;28;20585;-77
2021/09/04 10:16:59;;;;;;;8.33;7.53;;;20.90;99.90;;;;;;5002718;28;20198;-78
2021/09/04 10:19:30;;;;;;;9.10;8.20;;;21.00;99.90;;;;;;5001401;28;20288;-77
2021/09/04 10:22:05;;;;;;;15.63;14.27;;;21.20;99.90;;;;;;5013208;28;20583;-77
2021/09/04 10:24:48;;;;;;;8.00;7.30;;;21.30;99.90;;;;;;5010620;28;20182;-77
2021/09/04 10:27:29;;;;;;;8.60;7.80;;;21.40;99.90;;;;;;5022744;28;20231;-77
2021/09/04 10:29:54;;;;;;;8.33;7.53;;;21.30;99.90;;;;;;5003445;28;20219;-77
2021/09/04 10:32:20;;;;;;;6.93;6.20;;;21.40;99.90;;;;;;5012867;28;20207;-77
2021/09/04 10:34:48;;;;;;;8.17;7.37;;;21.40;99.90;;;;;;5005945;28;20261;-77
2021/09/04 10:37:13;;;;;;;8.60;7.70;;;21.80;99.90;;;;;;5006786;28;20183;-77
2021/09/04 10:39:50;;;;;;;7.80;6.20;;;21.70;99.90;;;;;;5006347;28;20214;-77
2021/09/04 10:42:29;;;;;;;7.43;6.67;;;21.80;99.90;;;;;;5002507;28;20277;-77
2021/09/04 10:45:16;;;;;;;7.33;6.73;;;21.90;99.90;;;;;;5010968;28;20237;-77
2021/09/04 10:47:54;;;;;;;6.70;6.07;;;22.10;99.90;;;;;;5005432;28;20191;-77
2021/09/04 10:50:27;;;;;;;6.10;5.57;;;22.40;99.90;;;;;;5004181;28;20203;-76
2021/09/04 10:52:53;;;;;;;6.63;6.13;;;22.40;99.90;;;;;;5002899;28;20620;-77
2021/09/04 10:55:27;;;;;;;6.93;6.33;;;22.40;99.90;;;;;;5011240;28;20662;-75
2021/09/04 10:58:03;;;;;;;7.47;6.40;;;22.40;99.90;;;;;;5025783;28;20549;-76
2021/09/04 11:00:29;;;;;;;6.87;6.17;;;22.40;99.90;;;;;;5007464;28;20221;-79
2021/09/04 11:03:00;;;;;;;6.27;5.67;;;22.50;99.90;;;;;;5011033;28;20189;-76
2021/09/04 11:05:41;;;;;;;6.60;5.97;;;22.60;99.90;;;;;;5005962;28;20193;-77
2021/09/04 11:08:12;;;;;;;5.90;5.40;;;22.50;99.90;;;;;;5003674;28;20184;-77
2021/09/04 11:10:43;;;;;;;5.87;5.37;;;22.60;99.90;;;;;;5010918;28;20269;-77
2021/09/04 11:13:11;;;;;;;5.50;5.10;;;22.60;99.90;;;;;;5007296;28;20590;-77
2021/09/04 11:15:38;;;;;;;6.43;5.70;;;22.70;99.90;;;;;;5003340;28;20198;-76
2021/09/04 11:18:04;;;;;;;6.20;5.70;;;22.70;99.90;;;;;;5014707;28;20252;-77
2021/09/04 11:20:30;;;;;;;6.97;6.07;;;22.90;99.90;;;;;;5006641;28;20246;-77
2021/09/04 11:22:56;;;;;;;6.17;5.67;;;23.00;99.90;;;;;;5015683;28;20190;-78
2021/09/04 11:25:22;;;;;;;6.80;6.17;;;23.30;99.90;;;;;;5015084;28;20183;-77
2021/09/04 11:27:48;;;;;;;6.17;5.53;;;23.50;99.90;;;;;;5014248;28;20167;-77
2021/09/04 11:30:16;;;;;;;6.70;5.83;;;23.40;99.90;;;;;;5014547;28;20286;-77
2021/09/04 11:32:42;;;;;;;6.10;5.60;;;23.30;99.90;;;;;;5014422;28;20211;-77
2021/09/04 11:35:09;;;;;;;7.83;5.27;;;23.30;99.90;;;;;;5014681;28;20191;-84
2021/09/04 11:37:37;;;;;;;6.00;5.40;;;23.20;99.90;;;;;;5017165;28;20206;-83
2021/09/04 11:40:17;;;;;;;5.80;5.30;;;23.20;99.90;;;;;;5009480;28;20705;-84
2021/09/04 11:42:48;;;;;;;4.97;4.57;;;23.10;99.90;;;;;;5017333;28;20184;-84
2021/09/04 11:45:15;;;;;;;5.37;4.97;;;23.20;99.90;;;;;;5017521;28;20198;-83
2021/09/04 11:47:45;;;;;;;4.70;4.40;;;23.30;99.90;;;;;;5017876;28;20178;-82
2021/09/04 11:50:22;;;;;;;5.27;4.77;;;23.30;99.90;;;;;;5032992;28;20195;-83
2021/09/04 11:52:47;;;;;;;4.97;4.57;;;23.80;99.90;;;;;;5029637;28;20172;-83
2021/09/04 11:55:22;;;;;;;6.00;4.90;;;23.90;99.90;;;;;;5019783;28;20549;-83
2021/09/04 11:57:50;;;;;;;5.33;4.83;;;24.10;99.90;;;;;;5018990;28;20250;-82
2021/09/04 12:00:18;;;;;;;5.80;5.30;;;24.30;99.90;;;;;;5016287;28;20210;-83
2021/09/04 12:02:54;;;;;;;5.47;4.97;;;24.30;99.90;;;;;;5015673;28;20194;-83
2021/09/04 12:05:22;;;;;;;5.63;5.13;;;24.10;99.90;;;;;;5015923;28;20219;-81
2021/09/04 12:07:48;;;;;;;5.60;5.10;;;24.10;99.90;;;;;;5015089;28;20542;-83
2021/09/04 12:10:19;;;;;;;5.67;5.10;;;24.10;99.90;;;;;;5016384;28;20614;-83
2021/09/04 12:12:45;;;;;;;5.40;5.00;;;24.10;99.90;;;;;;5017027;28;20183;-82
2021/09/04 12:15:13;;;;;;;4.67;4.27;;;24.10;99.90;;;;;;5016019;28;20183;-83
2021/09/04 12:17:56;;;;;;;5.27;4.77;;;24.10;99.90;;;;;;5015564;28;20179;-83
2021/09/04 12:20:30;;;;;;;5.10;4.20;;;24.00;99.90;;;;;;5015324;28;20696;-83
2021/09/04 12:23:02;;;;;;;5.30;4.90;;;24.10;99.90;;;;;;5015696;28;20210;-83
2021/09/04 12:25:33;;;;;;;6.30;4.90;;;24.10;99.90;;;;;;5013195;28;20665;-83
2021/09/04 12:28:05;;;;;;;4.90;4.43;;;24.30;99.90;;;;;;5012421;28;20243;-83
2021/09/04 12:30:32;;;;;;;4.77;4.37;;;24.30;99.90;;;;;;5015235;28;20203;-83
2021/09/04 12:33:06;;;;;;;4.57;4.17;;;24.40;99.90;;;;;;5014349;28;20236;-83
2021/09/04 12:35:52;;;;;;;5.30;4.90;;;24.30;99.90;;;;;;5027174;28;20269;-83
2021/09/04 12:38:22;;;;;;;4.37;3.97;;;24.60;99.90;;;;;;5025242;28;20282;-83
2021/09/04 12:41:00;;;;;;;4.20;3.80;;;24.80;99.90;;;;;;5015831;28;20620;-83